Terminal Aerodrome Forecast
Issued by NWS Goodland, KS

Home | Current Version | Previous Version | Text Only | Print | Product List | Glossary On
Versions: 1 2 3 4 5 6 7 8 9 10 11 12 13 14 15 16 17 18 19 20 21
000
FTUS43 KGLD 241215 AAA
TAFGLD
TAF AMD
KGLD 241215Z 2412/2512 34016G25KT P6SM OVC007
     FM241400 35019G28KT 3SM RA BR BKN007
     FM241700 35022G31KT P6SM SCT007 BKN025
     FM250200 36011KT P6SM SCT025 BKN080
     FM251100 33010KT P6SM SCT020=

USA.gov is the U.S. government's official web portal to all federal, state and local government web resources and services.